Time;durP1;ratioP1;P1;durP2;ratioP2;P2;SDS_P1;SDS_P2;PMS_P1;PMS_P2;Temp;Humidity;BMP_temperature;BMP_pressure;BME280_temperature;BME280_humidity;BME280_pressure;Samples;Min_cycle;Max_cycle;Signal;HPM_P1;HPM_P2
2023/06/06 00:01:20;;;;;;;6.17;5.07;;;19.70;1.00;;;;;;5038951;28;20220;-56
2023/06/06 00:03:48;;;;;;;6.33;5.53;;;19.70;1.00;;;;;;5036288;28;20639;-56
2023/06/06 00:06:16;;;;;;;6.47;5.87;;;19.60;1.00;;;;;;5041712;28;21015;-57
2023/06/06 00:08:42;;;;;;;5.90;5.30;;;19.50;1.00;;;;;;5038052;28;20607;-57
2023/06/06 00:11:09;;;;;;;5.40;4.90;;;19.50;1.00;;;;;;5040767;28;20453;-56
2023/06/06 00:13:35;;;;;;;6.43;5.80;;;19.50;1.00;;;;;;5044057;28;20483;-55
2023/06/06 00:16:02;;;;;;;5.97;5.33;;;19.50;1.00;;;;;;5043087;28;20978;-57
2023/06/06 00:18:28;;;;;;;5.63;5.23;;;19.50;1.00;;;;;;5042851;28;20977;-57
2023/06/06 00:20:54;;;;;;;7.63;6.87;;;19.50;1.00;;;;;;5042288;28;20490;-56
2023/06/06 00:23:21;;;;;;;6.27;5.57;;;19.60;1.00;;;;;;5043937;28;20843;-56
2023/06/06 00:25:51;;;;;;;5.90;5.30;;;19.50;1.00;;;;;;5040441;28;20500;-56
2023/06/06 00:28:16;;;;;;;6.27;5.67;;;19.50;1.00;;;;;;5040252;28;20481;-56
2023/06/06 00:30:42;;;;;;;6.40;5.67;;;19.50;1.00;;;;;;5043900;28;20596;-57
2023/06/06 00:33:08;;;;;;;6.50;5.90;;;19.50;1.00;;;;;;5040196;28;20268;-58
2023/06/06 00:35:33;;;;;;;6.47;5.87;;;19.40;1.00;;;;;;5040939;28;20187;-56
2023/06/06 00:37:59;;;;;;;8.30;6.57;;;19.40;1.00;;;;;;5037217;28;20191;-57
2023/06/06 00:40:25;;;;;;;6.80;6.03;;;19.40;1.00;;;;;;5041658;28;20184;-57
2023/06/06 00:42:51;;;;;;;6.60;5.90;;;19.40;1.00;;;;;;5041768;28;20250;-55
2023/06/06 00:45:17;;;;;;;6.80;5.73;;;19.30;1.00;;;;;;5038286;28;20668;-56
2023/06/06 00:47:44;;;;;;;6.93;5.90;;;19.30;1.00;;;;;;5041169;28;20468;-56
2023/06/06 00:50:12;;;;;;;6.87;6.23;;;19.30;1.00;;;;;;5045296;28;20225;-56
2023/06/06 00:52:41;;;;;;;7.03;6.43;;;19.30;1.00;;;;;;5043619;28;20453;-55
2023/06/06 00:55:09;;;;;;;7.17;6.53;;;19.30;1.00;;;;;;5045717;28;21045;-57
2023/06/06 00:57:36;;;;;;;6.90;6.30;;;19.30;1.00;;;;;;5048086;28;20480;-57
2023/06/06 01:00:06;;;;;;;6.43;5.63;;;19.20;1.00;;;;;;5041182;28;20484;-57
2023/06/06 01:02:37;;;;;;;7.27;6.37;;;19.10;1.00;;;;;;5042832;28;20990;-55
2023/06/06 01:05:03;;;;;;;8.30;6.47;;;19.20;1.00;;;;;;5042030;28;20543;-57
2023/06/06 01:07:29;;;;;;;7.00;6.40;;;19.10;1.00;;;;;;5047185;28;20567;-56
2023/06/06 01:09:55;;;;;;;7.50;6.80;;;19.00;1.00;;;;;;5043670;28;20538;-56
2023/06/06 01:12:28;;;;;;;7.67;6.70;;;18.90;1.00;;;;;;5036952;28;20197;-56
2023/06/06 01:15:00;;;;;;;9.40;7.80;;;19.00;1.00;;;;;;5043465;28;20186;-57
2023/06/06 01:17:27;;;;;;;6.57;6.07;;;19.00;1.00;;;;;;5046252;28;20460;-57
2023/06/06 01:19:56;;;;;;;7.30;6.60;;;19.00;1.00;;;;;;5042136;28;20453;-56
2023/06/06 01:22:23;;;;;;;10.40;7.33;;;18.90;1.00;;;;;;5039968;28;20451;-56
2023/06/06 01:24:54;;;;;;;7.80;7.00;;;18.90;1.00;;;;;;5045707;28;20452;-56
2023/06/06 01:27:21;;;;;;;7.60;6.80;;;18.90;1.00;;;;;;5047828;28;20484;-55
2023/06/06 01:29:47;;;;;;;7.40;6.60;;;18.80;1.00;;;;;;5043598;28;20539;-55
2023/06/06 01:32:27;;;;;;;7.87;7.07;;;18.80;1.00;;;;;;5041586;28;20939;-55
2023/06/06 01:35:16;;;;;;;7.83;7.07;;;18.80;1.00;;;;;;5049758;28;20459;-55
2023/06/06 01:37:54;;;;;;;7.03;6.33;;;18.50;1.00;;;;;;5040234;28;20475;-57
2023/06/06 01:40:24;;;;;;;7.00;6.40;;;18.60;1.00;;;;;;5045345;28;20451;-58
2023/06/06 01:42:50;;;;;;;8.83;6.73;;;18.60;1.00;;;;;;5040959;28;20947;-57
2023/06/06 01:45:19;;;;;;;8.27;7.47;;;18.60;1.00;;;;;;5040526;28;20531;-57
2023/06/06 01:47:46;;;;;;;8.07;7.37;;;18.60;1.00;;;;;;5042746;28;20472;-56
2023/06/06 01:50:12;;;;;;;7.77;6.90;;;18.60;1.00;;;;;;5039591;28;20623;-57
2023/06/06 01:52:38;;;;;;;10.07;7.30;;;18.60;1.00;;;;;;5039123;28;20493;-56
2023/06/06 01:55:05;;;;;;;8.03;7.43;;;18.60;1.00;;;;;;5038262;28;20834;-56
2023/06/06 01:57:31;;;;;;;9.13;7.20;;;18.70;1.00;;;;;;5041828;28;20199;-56
2023/06/06 01:59:58;;;;;;;8.03;7.23;;;18.60;1.00;;;;;;5046186;28;20494;-57
2023/06/06 02:02:23;;;;;;;7.90;7.17;;;18.60;1.00;;;;;;5042897;28;20232;-55
2023/06/06 02:04:50;;;;;;;7.93;7.20;;;18.60;1.00;;;;;;5047399;28;20483;-56
2023/06/06 02:07:17;;;;;;;10.30;7.70;;;18.60;1.00;;;;;;5049455;28;20501;-56
2023/06/06 02:09:43;;;;;;;8.10;7.30;;;18.50;1.00;;;;;;5047635;28;20502;-55
2023/06/06 02:12:09;;;;;;;7.73;7.13;;;18.50;1.00;;;;;;5046818;28;20484;-55
2023/06/06 02:14:35;;;;;;;8.37;7.57;;;18.60;1.00;;;;;;5043562;28;20450;-56
2023/06/06 02:17:02;;;;;;;7.63;6.90;;;18.60;1.00;;;;;;5045115;28;20981;-55
2023/06/06 02:19:28;;;;;;;8.40;7.53;;;18.60;1.00;;;;;;5041807;28;20488;-55
2023/06/06 02:21:54;;;;;;;7.60;6.90;;;18.50;1.00;;;;;;5041252;28;20974;-55
2023/06/06 02:24:20;;;;;;;7.50;6.80;;;18.50;1.00;;;;;;5043383;28;20175;-55
2023/06/06 02:26:47;;;;;;;7.90;7.10;;;18.50;1.00;;;;;;5040391;28;20232;-56
2023/06/06 02:29:13;;;;;;;8.57;7.57;;;18.40;1.00;;;;;;5035777;28;20564;-56
2023/06/06 02:31:39;;;;;;;8.23;7.30;;;18.50;1.00;;;;;;5044034;28;20547;-56
2023/06/06 02:34:05;;;;;;;7.90;7.10;;;18.50;1.00;;;;;;5038187;28;20926;-55
2023/06/06 02:36:31;;;;;;;8.93;7.27;;;18.50;1.00;;;;;;5038619;28;20269;-56
2023/06/06 02:38:57;;;;;;;6.90;6.30;;;18.40;1.00;;;;;;5042000;28;20456;-55
2023/06/06 02:41:23;;;;;;;7.37;6.67;;;18.40;1.00;;;;;;5040213;28;20945;-56
2023/06/06 02:43:49;;;;;;;9.17;7.63;;;18.40;1.00;;;;;;5039310;28;20198;-55
2023/06/06 02:46:15;;;;;;;12.80;9.13;;;18.40;1.00;;;;;;5042443;28;20449;-56
2023/06/06 02:48:45;;;;;;;9.20;8.30;;;18.40;1.00;;;;;;5046361;28;20471;-57
2023/06/06 02:51:11;;;;;;;9.73;8.20;;;18.30;1.00;;;;;;5040620;28;20502;-56
2023/06/06 02:53:40;;;;;;;8.00;7.20;;;18.30;1.00;;;;;;5046841;28;20456;-55
2023/06/06 02:56:07;;;;;;;9.03;8.23;;;18.20;1.00;;;;;;5044239;28;20451;-54
2023/06/06 02:58:33;;;;;;;8.67;7.87;;;18.00;1.00;;;;;;5047257;28;20932;-56
2023/06/06 03:01:00;;;;;;;8.63;7.83;;;18.00;1.00;;;;;;5044276;28;20459;-56
2023/06/06 03:03:26;;;;;;;8.57;7.87;;;17.90;1.00;;;;;;5044212;28;20517;-55
2023/06/06 03:05:53;;;;;;;8.83;7.93;;;17.80;1.00;;;;;;5041359;28;20989;-55
2023/06/06 03:08:19;;;;;;;12.00;8.13;;;17.70;1.00;;;;;;5038213;28;20854;-56
2023/06/06 03:10:46;;;;;;;8.67;7.87;;;17.60;1.00;;;;;;5039994;28;20451;-56
2023/06/06 03:13:12;;;;;;;8.97;8.17;;;17.60;1.00;;;;;;5041552;28;20809;-56
2023/06/06 03:15:40;;;;;;;9.80;8.90;;;17.50;1.00;;;;;;5046702;28;20451;-56
2023/06/06 03:18:09;;;;;;;10.50;8.10;;;17.50;1.00;;;;;;5045576;28;21231;-55
2023/06/06 03:20:36;;;;;;;8.20;7.50;;;17.60;1.00;;;;;;5042116;28;20528;-56
2023/06/06 03:23:02;;;;;;;10.17;9.23;;;17.50;1.00;;;;;;5045002;28;20451;-56
2023/06/06 03:25:28;;;;;;;9.40;8.57;;;17.50;1.00;;;;;;5041062;28;20459;-56
2023/06/06 03:27:54;;;;;;;10.90;9.10;;;17.50;1.00;;;;;;5044958;28;20481;-56
2023/06/06 03:30:20;;;;;;;9.73;8.90;;;17.40;1.00;;;;;;5040570;28;20450;-56
2023/06/06 03:32:45;;;;;;;9.83;8.83;;;17.40;1.00;;;;;;5041216;28;20281;-55
2023/06/06 03:35:14;;;;;;;9.30;8.60;;;17.40;1.00;;;;;;5044493;28;20635;-56
2023/06/06 03:37:40;;;;;;;9.20;8.40;;;17.50;1.00;;;;;;5042923;28;20693;-55
2023/06/06 03:40:08;;;;;;;9.10;8.30;;;17.50;1.00;;;;;;5040773;28;20450;-57
2023/06/06 03:42:33;;;;;;;9.50;8.60;;;17.60;1.00;;;;;;5040331;28;20448;-56
2023/06/06 03:44:59;;;;;;;10.10;9.20;;;17.60;1.00;;;;;;5041679;28;20443;-58
2023/06/06 03:47:25;;;;;;;10.33;8.03;;;17.50;1.00;;;;;;5044734;28;20196;-56
2023/06/06 03:49:50;;;;;;;10.03;9.10;;;17.40;1.00;;;;;;5038961;28;20242;-57
2023/06/06 03:52:16;;;;;;;9.90;9.00;;;17.30;1.00;;;;;;5038030;28;20576;-55
2023/06/06 03:54:42;;;;;;;10.00;9.10;;;17.20;1.00;;;;;;5032592;28;20284;-56
2023/06/06 03:57:11;;;;;;;9.40;8.50;;;17.20;1.00;;;;;;5037152;28;20479;-55
2023/06/06 03:59:36;;;;;;;10.87;9.87;;;17.30;1.00;;;;;;5036238;28;20250;-56
2023/06/06 04:02:02;;;;;;;9.40;8.60;;;17.40;1.00;;;;;;5036848;28;20444;-55
2023/06/06 04:04:30;;;;;;;11.80;10.50;;;17.30;1.00;;;;;;5035596;28;20182;-57
2023/06/06 04:06:57;;;;;;;10.30;8.93;;;17.30;1.00;;;;;;5036795;28;20448;-56
2023/06/06 04:09:22;;;;;;;10.33;8.97;;;17.50;1.00;;;;;;5035268;28;20468;-55
2023/06/06 04:11:48;;;;;;;9.27;8.37;;;17.50;1.00;;;;;;5035261;28;21159;-56
2023/06/06 04:14:14;;;;;;;9.20;8.40;;;17.60;1.00;;;;;;5041729;28;20185;-57
2023/06/06 04:16:40;;;;;;;9.00;8.17;;;17.60;1.00;;;;;;5036022;28;20196;-55
2023/06/06 04:19:07;;;;;;;10.63;9.03;;;17.60;1.00;;;;;;5047201;28;20277;-55
2023/06/06 04:21:33;;;;;;;10.00;9.10;;;17.60;1.00;;;;;;5034832;28;20460;-55
2023/06/06 04:24:00;;;;;;;9.83;9.00;;;17.60;1.00;;;;;;5040009;28;20455;-56
2023/06/06 04:26:31;;;;;;;9.83;8.90;;;17.80;1.00;;;;;;5039082;28;20193;-55
2023/06/06 04:29:00;;;;;;;10.63;8.97;;;17.80;1.00;;;;;;5044497;28;20829;-55
2023/06/06 04:31:29;;;;;;;10.10;9.20;;;17.80;1.00;;;;;;5042812;28;20963;-56
2023/06/06 04:33:55;;;;;;;8.87;7.97;;;17.60;1.00;;;;;;5043197;28;20435;-55
2023/06/06 04:36:23;;;;;;;9.27;8.37;;;17.50;1.00;;;;;;5035967;28;20906;-55
2023/06/06 04:38:50;;;;;;;8.57;7.87;;;17.40;1.00;;;;;;5042053;28;20962;-55
2023/06/06 04:41:22;;;;;;;9.90;9.00;;;17.50;1.00;;;;;;5036638;28;20445;-56
2023/06/06 04:43:49;;;;;;;9.70;8.80;;;17.50;1.00;;;;;;5038857;28;20482;-56
2023/06/06 04:46:21;;;;;;;10.90;9.50;;;17.60;1.00;;;;;;5037396;28;20454;-56
2023/06/06 04:48:54;;;;;;;10.67;9.40;;;17.60;1.00;;;;;;5039694;28;20467;-57
2023/06/06 04:51:22;;;;;;;9.70;8.90;;;17.80;1.00;;;;;;5037903;28;20516;-56
2023/06/06 04:53:50;;;;;;;10.50;9.50;;;17.80;1.00;;;;;;5042709;28;21154;-56
2023/06/06 04:56:17;;;;;;;10.10;8.93;;;17.80;1.00;;;;;;5036526;28;20452;-55
2023/06/06 04:58:45;;;;;;;9.80;8.93;;;17.60;1.00;;;;;;5034510;28;20821;-56
2023/06/06 05:01:13;;;;;;;10.03;9.20;;;17.50;1.00;;;;;;5036998;28;20445;-55
2023/06/06 05:03:39;;;;;;;10.20;9.20;;;17.40;1.00;;;;;;5037663;28;20450;-55
2023/06/06 05:06:05;;;;;;;10.17;9.20;;;17.40;1.00;;;;;;5041267;28;20451;-55
2023/06/06 05:08:35;;;;;;;10.73;9.73;;;17.50;1.00;;;;;;5043102;28;20470;-56
2023/06/06 05:11:01;;;;;;;10.23;9.40;;;17.50;1.00;;;;;;5042384;28;20448;-55
2023/06/06 05:13:27;;;;;;;9.30;8.13;;;17.60;1.00;;;;;;5042984;28;20448;-56
2023/06/06 05:15:52;;;;;;;10.27;9.27;;;17.80;1.00;;;;;;5040435;28;20269;-55
2023/06/06 05:18:20;;;;;;;10.27;9.27;;;17.90;1.00;;;;;;5041001;28;20199;-56
2023/06/06 05:20:46;;;;;;;9.97;8.90;;;18.00;1.00;;;;;;5040000;28;20184;-55
2023/06/06 05:23:12;;;;;;;8.87;8.03;;;18.10;1.00;;;;;;5042573;28;20474;-55
2023/06/06 05:25:38;;;;;;;11.57;9.07;;;18.00;1.00;;;;;;5039154;28;20655;-55
2023/06/06 05:28:04;;;;;;;13.43;10.30;;;18.00;1.00;;;;;;5041693;28;20475;-57
2023/06/06 05:30:30;;;;;;;11.03;9.53;;;17.90;1.00;;;;;;5038161;28;20202;-55
2023/06/06 05:32:56;;;;;;;9.17;8.20;;;17.80;1.00;;;;;;5039572;28;20955;-56
2023/06/06 05:35:21;;;;;;;9.97;9.07;;;17.70;1.00;;;;;;5041589;28;20692;-56
2023/06/06 05:37:47;;;;;;;9.03;8.23;;;17.60;1.00;;;;;;5037776;28;20207;-57
2023/06/06 05:40:13;;;;;;;10.27;9.30;;;17.70;1.00;;;;;;5043194;28;20306;-58
2023/06/06 05:42:39;;;;;;;10.50;9.50;;;17.80;1.00;;;;;;5046883;28;20463;-57
2023/06/06 05:45:05;;;;;;;10.87;9.87;;;17.80;1.00;;;;;;5049174;28;20440;-58
2023/06/06 05:47:31;;;;;;;9.70;8.80;;;18.10;1.00;;;;;;5038377;28;20350;-58
2023/06/06 05:49:56;;;;;;;10.80;9.77;;;18.00;1.00;;;;;;5044779;28;20490;-56
2023/06/06 05:52:22;;;;;;;10.20;9.30;;;18.00;1.00;;;;;;5049035;28;20598;-58
2023/06/06 05:54:47;;;;;;;10.07;9.17;;;17.80;1.00;;;;;;5041440;28;20185;-56
2023/06/06 05:57:21;;;;;;;11.10;10.10;;;17.80;1.00;;;;;;5048248;28;20473;-56
2023/06/06 05:59:46;;;;;;;10.43;9.53;;;17.80;1.00;;;;;;5042603;28;20264;-56
2023/06/06 06:02:14;;;;;;;9.93;9.00;;;17.80;1.00;;;;;;5041887;28;20866;-56
2023/06/06 06:04:41;;;;;;;9.60;8.70;;;17.80;1.00;;;;;;5040063;28;20527;-56
2023/06/06 06:07:07;;;;;;;10.37;9.50;;;17.90;1.00;;;;;;5045252;28;20452;-57
2023/06/06 06:09:32;;;;;;;9.77;8.97;;;18.00;1.00;;;;;;5048053;28;20966;-58
2023/06/06 06:11:58;;;;;;;10.10;9.20;;;18.20;1.00;;;;;;5047316;28;20460;-57
2023/06/06 06:14:24;;;;;;;9.83;8.97;;;18.20;1.00;;;;;;5043934;28;20183;-58
2023/06/06 06:16:49;;;;;;;10.07;8.93;;;18.10;1.00;;;;;;5048748;28;20193;-57
2023/06/06 06:19:15;;;;;;;9.90;8.90;;;18.30;1.00;;;;;;5050052;28;20262;-56
2023/06/06 06:21:40;;;;;;;9.30;8.50;;;18.60;1.00;;;;;;5043730;28;20218;-56
2023/06/06 06:24:06;;;;;;;9.73;8.93;;;19.00;1.00;;;;;;5046549;28;20638;-56
2023/06/06 06:26:33;;;;;;;8.87;8.07;;;19.10;1.00;;;;;;5043428;28;20195;-57
2023/06/06 06:28:59;;;;;;;8.87;8.07;;;19.30;1.00;;;;;;5048012;28;20980;-56
2023/06/06 06:31:26;;;;;;;10.47;9.57;;;19.30;1.00;;;;;;5048912;28;20453;-57
2023/06/06 06:33:52;;;;;;;9.33;8.43;;;19.60;1.00;;;;;;5043220;28;20600;-57
2023/06/06 06:36:18;;;;;;;9.10;8.20;;;19.70;1.00;;;;;;5045031;28;20483;-58
2023/06/06 06:38:44;;;;;;;10.17;9.17;;;19.70;1.00;;;;;;5047613;28;20268;-56
2023/06/06 06:41:09;;;;;;;9.10;8.30;;;19.90;1.00;;;;;;5046782;28;20194;-57
2023/06/06 06:43:35;;;;;;;9.27;8.47;;;20.00;1.00;;;;;;5048880;28;20511;-56
2023/06/06 06:46:01;;;;;;;10.00;9.00;;;20.00;1.00;;;;;;5043577;28;20200;-58
2023/06/06 06:48:26;;;;;;;9.37;8.57;;;20.10;1.00;;;;;;5044807;28;20220;-57
2023/06/06 06:50:52;;;;;;;9.60;8.30;;;20.10;1.00;;;;;;5046157;28;20194;-59
2023/06/06 06:53:18;;;;;;;9.67;8.17;;;20.20;1.00;;;;;;5045357;28;20201;-57
2023/06/06 06:55:45;;;;;;;14.73;8.20;;;20.10;1.00;;;;;;5042211;28;20450;-56
2023/06/06 06:58:22;;;;;;;8.70;7.80;;;20.00;1.00;;;;;;5042967;28;20462;-58
2023/06/06 07:00:48;;;;;;;9.00;8.23;;;20.00;1.00;;;;;;5045538;28;20882;-58
2023/06/06 07:03:14;;;;;;;7.47;6.83;;;19.90;1.00;;;;;;5044061;28;20492;-57
2023/06/06 07:05:42;;;;;;;7.30;6.70;;;19.80;1.00;;;;;;5045173;28;20214;-56
2023/06/06 07:08:08;;;;;;;8.20;7.47;;;19.60;1.00;;;;;;5041289;28;20220;-58
2023/06/06 07:10:34;;;;;;;7.23;6.53;;;19.30;1.00;;;;;;5045587;28;20444;-58
2023/06/06 07:13:00;;;;;;;8.60;7.60;;;19.10;1.00;;;;;;5047100;28;20204;-56
2023/06/06 07:15:26;;;;;;;8.43;7.60;;;19.00;1.00;;;;;;5041365;28;20518;-59
2023/06/06 07:17:52;;;;;;;9.13;8.40;;;19.00;1.00;;;;;;5044131;28;20278;-57
2023/06/06 07:20:21;;;;;;;8.37;7.67;;;19.10;1.00;;;;;;5045421;28;20190;-57
2023/06/06 07:22:47;;;;;;;8.07;7.27;;;19.30;1.00;;;;;;5047115;28;20795;-55
2023/06/06 07:25:14;;;;;;;7.87;7.17;;;19.40;1.00;;;;;;5042072;28;20466;-55
2023/06/06 07:27:39;;;;;;;7.13;6.47;;;19.60;1.00;;;;;;5044375;28;20931;-57
2023/06/06 07:30:12;;;;;;;7.43;6.73;;;19.60;1.00;;;;;;5047626;28;20543;-58
2023/06/06 07:32:41;;;;;;;7.57;6.57;;;19.70;1.00;;;;;;5043368;28;20446;-57
2023/06/06 07:35:09;;;;;;;8.33;6.87;;;19.80;1.00;;;;;;5043545;28;20486;-58
2023/06/06 07:37:36;;;;;;;7.60;6.30;;;20.00;1.00;;;;;;5042086;28;20509;-55
2023/06/06 07:40:03;;;;;;;7.33;6.73;;;19.80;1.00;;;;;;5046228;28;20976;-58
2023/06/06 07:42:28;;;;;;;8.10;6.47;;;19.80;1.00;;;;;;5045842;28;20493;-56
2023/06/06 07:44:55;;;;;;;7.57;6.97;;;19.70;1.00;;;;;;5045823;28;20453;-56
2023/06/06 07:47:23;;;;;;;7.63;6.97;;;19.80;1.00;;;;;;5039815;28;20199;-57
2023/06/06 07:49:50;;;;;;;8.37;7.60;;;19.80;1.00;;;;;;5047580;28;20445;-56
2023/06/06 07:52:16;;;;;;;7.87;7.20;;;19.60;1.00;;;;;;5047165;28;20561;-57
2023/06/06 07:54:42;;;;;;;8.10;7.50;;;19.80;1.00;;;;;;5043079;28;20483;-57
2023/06/06 07:57:08;;;;;;;7.40;6.90;;;20.00;1.00;;;;;;5040569;28;20463;-56
2023/06/06 07:59:34;;;;;;;8.17;7.43;;;20.30;1.00;;;;;;5045912;28;20323;-56
2023/06/06 08:02:00;;;;;;;7.97;7.27;;;20.70;1.00;;;;;;5045743;28;20461;-57
2023/06/06 08:04:26;;;;;;;9.27;7.93;;;20.90;1.00;;;;;;5042560;28;20462;-56
2023/06/06 08:06:53;;;;;;;8.33;7.70;;;21.10;1.00;;;;;;5046522;28;20455;-57
2023/06/06 08:09:19;;;;;;;9.00;8.20;;;21.10;1.00;;;;;;5042544;28;20673;-58
2023/06/06 08:11:46;;;;;;;8.77;7.97;;;20.90;1.00;;;;;;5043798;28;20564;-57
2023/06/06 08:14:12;;;;;;;8.20;7.50;;;21.00;1.00;;;;;;5041998;28;20448;-58
2023/06/06 08:16:38;;;;;;;8.90;8.00;;;21.00;1.00;;;;;;5043788;28;20438;-59
2023/06/06 08:19:04;;;;;;;9.13;8.33;;;21.00;1.00;;;;;;5046404;28;20191;-57
2023/06/06 08:21:29;;;;;;;7.57;6.87;;;20.90;1.00;;;;;;5038222;28;20335;-57
2023/06/06 08:23:57;;;;;;;8.13;7.43;;;20.60;1.00;;;;;;5043409;28;20446;-57
2023/06/06 08:26:25;;;;;;;8.00;7.37;;;20.50;1.00;;;;;;5045722;28;20194;-57
2023/06/06 08:28:51;;;;;;;8.10;7.50;;;20.40;1.00;;;;;;5045883;28;20508;-56
2023/06/06 08:31:18;;;;;;;6.90;6.40;;;20.50;1.00;;;;;;5049675;28;20443;-59
2023/06/06 08:33:45;;;;;;;8.03;7.33;;;20.50;1.00;;;;;;5052776;28;20956;-58
2023/06/06 08:36:11;;;;;;;8.37;7.50;;;20.50;1.00;;;;;;5045381;28;20449;-58
2023/06/06 08:38:39;;;;;;;8.57;7.97;;;20.40;1.00;;;;;;5039678;28;20945;-58
2023/06/06 08:41:05;;;;;;;8.93;8.23;;;20.60;1.00;;;;;;5047239;28;20613;-58
2023/06/06 08:43:36;;;;;;;8.57;7.87;;;20.90;1.00;;;;;;5044729;28;20974;-57
2023/06/06 08:46:02;;;;;;;8.57;7.70;;;21.50;1.00;;;;;;5048437;28;20998;-57
2023/06/06 08:48:29;;;;;;;8.43;7.73;;;21.90;1.00;;;;;;5048255;28;20473;-58
2023/06/06 08:50:59;;;;;;;8.20;7.40;;;22.10;1.00;;;;;;5046632;28;20452;-57
2023/06/06 08:53:25;;;;;;;8.43;7.80;;;22.20;1.00;;;;;;5047407;28;20455;-57
2023/06/06 08:55:55;;;;;;;8.90;8.20;;;22.10;1.00;;;;;;5046799;28;20448;-57
2023/06/06 08:58:22;;;;;;;7.83;7.23;;;22.20;1.00;;;;;;5044355;28;20965;-58
2023/06/06 09:00:49;;;;;;;7.77;7.17;;;22.10;1.00;;;;;;5043700;28;20447;-58
2023/06/06 09:03:17;;;;;;;8.47;7.77;;;22.00;1.00;;;;;;5041868;28;20453;-58
2023/06/06 09:05:43;;;;;;;7.60;7.10;;;21.90;1.00;;;;;;5043232;28;20485;-58
2023/06/06 09:08:09;;;;;;;9.30;8.60;;;21.70;1.00;;;;;;5046971;28;20484;-56
2023/06/06 09:10:34;;;;;;;7.80;7.20;;;21.50;1.00;;;;;;5049064;28;20198;-58
2023/06/06 09:13:00;;;;;;;9.23;8.43;;;21.30;1.00;;;;;;5051185;28;20195;-56
2023/06/06 09:15:27;;;;;;;9.67;8.77;;;21.10;1.00;;;;;;5049332;28;20233;-60
2023/06/06 09:17:54;;;;;;;9.70;9.00;;;20.90;1.00;;;;;;5050134;28;20195;-57
2023/06/06 09:20:23;;;;;;;9.47;8.63;;;20.90;1.00;;;;;;5050158;28;20555;-57
2023/06/06 09:22:50;;;;;;;10.07;9.27;;;20.90;1.00;;;;;;5049619;28;20458;-57
2023/06/06 09:25:27;;;;;;;9.17;8.40;;;20.70;1.00;;;;;;5040286;28;20720;-58
2023/06/06 09:28:01;;;;;;;10.03;9.33;;;20.30;1.00;;;;;;5040166;28;20476;-57
2023/06/06 09:30:29;;;;;;;10.83;9.97;;;20.10;1.00;;;;;;5048339;28;20452;-57
2023/06/06 09:32:57;;;;;;;10.00;9.20;;;20.20;1.00;;;;;;5048064;28;20746;-57
2023/06/06 09:35:23;;;;;;;10.30;9.43;;;20.20;1.00;;;;;;5045829;28;20431;-57
2023/06/06 09:37:49;;;;;;;9.80;9.00;;;20.20;1.00;;;;;;5047682;28;20446;-57
2023/06/06 09:40:19;;;;;;;9.80;9.10;;;20.20;1.00;;;;;;5042784;28;20449;-57
2023/06/06 09:42:46;;;;;;;10.40;9.47;;;20.40;1.00;;;;;;5039487;28;20456;-57
2023/06/06 09:45:19;;;;;;;10.70;9.77;;;20.40;1.00;;;;;;5045151;28;20468;-58
2023/06/06 09:47:48;;;;;;;10.13;9.13;;;20.50;1.00;;;;;;5045886;28;20466;-58
2023/06/06 09:50:16;;;;;;;10.90;9.90;;;20.70;1.00;;;;;;5048346;28;20451;-56
2023/06/06 09:52:42;;;;;;;11.50;10.40;;;20.90;1.00;;;;;;5046556;28;20445;-57
2023/06/06 09:55:12;;;;;;;10.23;8.73;;;21.20;1.00;;;;;;5045998;28;20492;-56
2023/06/06 09:57:40;;;;;;;9.80;9.00;;;21.40;1.00;;;;;;5046676;28;20445;-57
2023/06/06 10:00:10;;;;;;;10.40;9.60;;;21.60;1.00;;;;;;5045815;28;20484;-57
2023/06/06 10:02:47;;;;;;;10.50;9.60;;;21.70;1.00;;;;;;5047356;28;20787;-56
2023/06/06 10:05:15;;;;;;;11.10;10.13;;;21.50;1.00;;;;;;5045496;28;20447;-56
2023/06/06 10:07:45;;;;;;;9.60;8.80;;;21.60;1.00;;;;;;5045585;28;20883;-58
2023/06/06 10:10:16;;;;;;;10.17;9.27;;;21.70;1.00;;;;;;5043146;28;21071;-57
2023/06/06 10:12:43;;;;;;;10.60;9.70;;;21.70;1.00;;;;;;5045242;28;20757;-57
2023/06/06 10:15:12;;;;;;;10.40;9.50;;;21.50;1.00;;;;;;5045754;28;20632;-57
2023/06/06 10:17:41;;;;;;;10.60;9.77;;;21.40;1.00;;;;;;5047882;28;20453;-57
2023/06/06 10:20:10;;;;;;;9.60;8.70;;;21.40;1.00;;;;;;5047596;28;20942;-57
2023/06/06 10:22:36;;;;;;;9.63;8.83;;;21.70;1.00;;;;;;5044052;28;20450;-56
2023/06/06 10:25:09;;;;;;;9.73;9.03;;;21.70;1.00;;;;;;5046230;28;20544;-57
2023/06/06 10:27:48;;;;;;;9.40;8.70;;;21.90;1.00;;;;;;5045235;28;20454;-58
2023/06/06 10:30:41;;;;;;;9.00;8.20;;;21.90;1.00;;;;;;5048618;28;20568;-57
2023/06/06 10:33:18;;;;;;;9.90;9.10;;;22.20;1.00;;;;;;5046551;28;20442;-56
2023/06/06 10:35:46;;;;;;;10.20;9.50;;;22.10;1.00;;;;;;5050178;28;20447;-59
2023/06/06 10:38:12;;;;;;;10.60;9.80;;;21.70;1.00;;;;;;5049485;28;20852;-59
2023/06/06 10:40:55;;;;;;;10.50;9.60;;;21.40;1.00;;;;;;5048913;28;20960;-57
2023/06/06 10:43:32;;;;;;;10.53;9.63;;;21.10;1.00;;;;;;5042484;28;20451;-57
2023/06/06 10:45:59;;;;;;;11.30;10.27;;;21.00;1.00;;;;;;5048093;28;20457;-58
2023/06/06 10:48:43;;;;;;;11.67;10.57;;;20.90;1.00;;;;;;5050637;28;20735;-57
2023/06/06 10:51:30;;;;;;;11.30;10.10;;;20.90;1.00;;;;;;5049707;28;20441;-59
2023/06/06 10:54:16;;;;;;;11.20;10.20;;;21.10;1.00;;;;;;5047834;28;20528;-57
2023/06/06 10:56:51;;;;;;;6.20;5.60;;;21.40;1.00;;;;;;5049326;28;20442;-57
2023/06/06 10:59:31;;;;;;;4.50;4.13;;;21.40;1.00;;;;;;5048570;28;21041;-58
2023/06/06 11:01:58;;;;;;;5.80;4.37;;;21.10;1.00;;;;;;5047797;28;22087;-58
2023/06/06 11:04:25;;;;;;;5.33;4.80;;;20.80;1.00;;;;;;5048952;28;20534;-58
2023/06/06 11:06:53;;;;;;;4.50;4.10;;;20.40;1.00;;;;;;5048060;28;20453;-71
2023/06/06 11:09:25;;;;;;;4.63;4.10;;;20.20;1.00;;;;;;5047066;28;20765;-57
2023/06/06 11:12:13;;;;;;;4.93;4.53;;;20.00;1.00;;;;;;5045977;28;20544;-58
2023/06/06 11:15:00;;;;;;;5.97;4.67;;;19.80;1.00;;;;;;5044348;28;20516;-56
2023/06/06 11:17:45;;;;;;;9.70;4.40;;;19.80;1.00;;;;;;5046441;28;20444;-57
2023/06/06 11:20:21;;;;;;;5.60;4.20;;;19.70;1.00;;;;;;5042883;28;20455;-58
2023/06/06 11:23:04;;;;;;;4.17;3.70;;;19.80;1.00;;;;;;5046740;28;20490;-57
2023/06/06 11:25:31;;;;;;;5.30;3.87;;;19.80;1.00;;;;;;5044762;28;20493;-57
2023/06/06 11:27:58;;;;;;;5.50;4.00;;;19.80;1.00;;;;;;5044788;28;20606;-58
2023/06/06 11:30:24;;;;;;;6.50;4.57;;;19.90;1.00;;;;;;5044673;28;20769;-57
2023/06/06 11:32:54;;;;;;;4.77;4.20;;;20.10;1.00;;;;;;5046682;28;20477;-57
2023/06/06 11:35:21;;;;;;;4.73;4.33;;;20.40;1.00;;;;;;5050593;28;20456;-57
2023/06/06 11:37:47;;;;;;;6.73;4.17;;;20.80;1.00;;;;;;5040559;28;20462;-57
2023/06/06 11:40:14;;;;;;;3.90;3.60;;;21.20;1.00;;;;;;5042065;28;20462;-55
2023/06/06 11:42:43;;;;;;;7.10;4.87;;;21.80;1.00;;;;;;5047430;28;20449;-57
2023/06/06 11:45:13;;;;;;;4.77;4.37;;;22.20;1.00;;;;;;5046905;28;20448;-56
2023/06/06 11:47:40;;;;;;;4.70;4.30;;;22.50;1.00;;;;;;5047040;28;20453;-56
2023/06/06 11:50:06;;;;;;;4.60;4.10;;;22.60;1.00;;;;;;5043614;28;20535;-57
2023/06/06 11:52:32;;;;;;;4.73;3.93;;;22.70;1.00;;;;;;5042817;28;20453;-55
2023/06/06 11:55:04;;;;;;;4.33;3.77;;;22.70;1.00;;;;;;5042540;28;20524;-56
2023/06/06 11:57:31;;;;;;;4.60;4.20;;;22.60;1.00;;;;;;5041142;28;20784;-56
2023/06/06 11:59:59;;;;;;;5.80;4.67;;;22.40;1.00;;;;;;5042493;28;20482;-57
2023/06/06 12:02:26;;;;;;;5.00;4.60;;;22.50;1.00;;;;;;5046062;28;20453;-56
2023/06/06 12:04:51;;;;;;;4.97;4.57;;;22.70;1.00;;;;;;5040851;28;20531;-56
2023/06/06 12:07:20;;;;;;;4.70;4.30;;;22.80;1.00;;;;;;5044761;28;20589;-57
2023/06/06 12:09:55;;;;;;;4.80;4.40;;;23.10;1.00;;;;;;5042671;28;20240;-57
2023/06/06 12:12:21;;;;;;;5.60;5.20;;;23.50;1.00;;;;;;5040009;28;20535;-56
2023/06/06 12:14:59;;;;;;;6.80;5.03;;;24.00;1.00;;;;;;5045762;28;20516;-55
2023/06/06 12:17:27;;;;;;;5.20;4.80;;;24.20;1.00;;;;;;5046109;28;20183;-56
2023/06/06 12:19:53;;;;;;;4.90;4.50;;;24.10;1.00;;;;;;5035855;28;20454;-56
2023/06/06 12:22:35;;;;;;;5.23;4.73;;;24.20;1.00;;;;;;5046511;28;20443;-56
2023/06/06 12:25:02;;;;;;;4.17;3.87;;;24.20;1.00;;;;;;5043944;28;20495;-57
2023/06/06 12:27:36;;;;;;;5.33;4.83;;;24.30;1.00;;;;;;5041803;28;20449;-55
2023/06/06 12:30:04;;;;;;;11.50;10.40;;;24.60;99.90;;;;;;5046797;28;20488;-56
2023/06/06 12:32:30;;;;;;;4.93;4.63;;;24.60;99.90;;;;;;5046996;28;20445;-57
2023/06/06 12:35:01;;;;;;;4.20;3.80;;;24.30;1.00;;;;;;5045581;28;20954;-56
2023/06/06 12:37:42;;;;;;;6.70;5.40;;;24.10;99.90;;;;;;5043661;28;20517;-57
2023/06/06 12:40:20;;;;;;;6.00;5.40;;;23.60;1.00;;;;;;5044937;28;20575;-58
2023/06/06 12:42:59;;;;;;;6.03;5.53;;;23.30;1.00;;;;;;5044406;28;20479;-57
2023/06/06 12:45:26;;;;;;;6.03;5.53;;;23.10;1.00;;;;;;5045134;28;20500;-56
2023/06/06 12:47:55;;;;;;;6.17;5.67;;;22.80;1.00;;;;;;5044001;28;20463;-56
2023/06/06 12:50:21;;;;;;;6.87;6.27;;;22.40;1.00;;;;;;5041326;28;20479;-56
2023/06/06 12:52:48;;;;;;;6.30;5.90;;;21.90;1.00;;;;;;5039383;28;20453;-57
2023/06/06 12:55:14;;;;;;;6.60;6.10;;;21.70;1.00;;;;;;5044350;28;20447;-59
2023/06/06 12:57:40;;;;;;;6.77;6.10;;;21.50;1.00;;;;;;5046284;28;21025;-57
2023/06/06 13:00:11;;;;;;;6.80;6.20;;;21.40;1.00;;;;;;5040357;28;20469;-56